Time;durP1;ratioP1;P1;durP2;ratioP2;P2;SDS_P1;SDS_P2;PMS_P1;PMS_P2;Temp;Humidity;BMP_temperature;BMP_pressure;BME280_temperature;BME280_humidity;BME280_pressure;Samples;Min_cycle;Max_cycle;Signal;HPM_P1;HPM_P2
2023/02/16 00:00:00;;;;;;;26.73;14.52;;;9.70;99.90;;;8.78;100.00;102333.88;4174887;28;20403;-81
2023/02/16 00:02:01;;;;;;;27.77;13.95;;;9.70;99.90;;;8.80;100.00;102333.81;4167317;28;20095;-80
2023/02/16 00:04:07;;;;;;;32.08;14.45;;;9.70;99.90;;;8.79;100.00;102340.84;4167452;28;20382;-80
2023/02/16 00:06:13;;;;;;;26.42;13.82;;;9.70;99.90;;;8.80;100.00;102341.69;4167726;28;20037;-81
2023/02/16 00:08:14;;;;;;;22.38;13.30;;;9.70;99.90;;;8.77;100.00;102337.50;4185272;28;20399;-81
2023/02/16 00:10:15;;;;;;;25.70;14.10;;;9.70;99.90;;;8.73;100.00;102325.47;4150862;28;20029;-81
2023/02/16 00:14:39;;;;;;;19.02;12.65;;;9.70;99.90;;;8.76;100.00;102327.91;4170936;28;20040;-81
2023/02/16 00:16:41;;;;;;;22.90;13.40;;;9.70;99.90;;;8.78;100.00;102326.00;4163038;28;20018;-80
2023/02/16 00:18:42;;;;;;;23.00;12.75;;;9.70;99.90;;;8.78;100.00;102326.00;4176287;28;20025;-81
2023/02/16 00:20:44;;;;;;;21.95;13.32;;;9.70;99.90;;;8.72;100.00;102315.88;4173215;28;20036;-81
2023/02/16 00:22:45;;;;;;;19.98;13.13;;;9.70;99.90;;;8.73;100.00;102325.47;4150645;28;20029;-80
2023/02/16 00:24:46;;;;;;;23.17;12.98;;;9.70;99.90;;;8.75;100.00;102325.38;4167227;28;20053;-81
2023/02/16 00:26:48;;;;;;;27.48;12.75;;;9.60;99.90;;;8.72;100.00;102323.78;4176728;28;20032;-81
2023/02/16 00:28:54;;;;;;;18.67;11.82;;;9.60;99.90;;;8.69;100.00;102321.38;4176427;28;20485;-80
2023/02/16 00:30:55;;;;;;;23.42;12.68;;;9.60;99.90;;;8.69;100.00;102331.06;4171927;28;20036;-81
2023/02/16 00:32:55;;;;;;;23.92;13.68;;;9.60;99.90;;;8.75;100.00;102336.72;4170574;28;20400;-81
2023/02/16 00:34:56;;;;;;;21.05;12.02;;;9.60;99.90;;;8.69;100.00;102325.81;4170470;28;20052;-80
2023/02/16 00:37:00;;;;;;;19.38;11.85;;;9.60;99.90;;;8.66;100.00;102316.31;4173316;28;20025;-81
2023/02/16 00:39:01;;;;;;;21.50;12.82;;;9.60;99.90;;;8.75;100.00;102331.47;4155620;28;20034;-81
2023/02/16 00:41:02;;;;;;;27.23;13.10;;;9.60;99.90;;;8.71;100.00;102330.00;4187275;28;20428;-81
2023/02/16 00:43:03;;;;;;;23.23;13.30;;;9.60;99.90;;;8.66;100.00;102321.56;4171179;28;20113;-81
2023/02/16 00:45:05;;;;;;;23.13;12.75;;;9.60;99.90;;;8.76;100.00;102345.47;4153802;28;20030;-81
2023/02/16 00:47:45;;;;;;;27.40;13.30;;;9.60;99.90;;;8.72;100.00;102331.69;4191814;28;20023;-81
2023/02/16 00:49:49;;;;;;;17.95;11.48;;;9.60;99.90;;;8.59;100.00;102309.81;4170327;28;20036;-81
2023/02/16 00:51:51;;;;;;;23.48;12.82;;;9.60;99.90;;;8.69;100.00;102331.06;4170053;28;20147;-81
2023/02/16 00:53:52;;;;;;;31.90;14.77;;;9.60;99.90;;;8.71;100.00;102334.44;4171967;28;20163;-81
2023/02/16 00:55:53;;;;;;;22.05;12.13;;;9.60;99.90;;;8.72;100.00;102333.50;4184369;28;20033;-80
2023/02/16 00:58:10;;;;;;;23.20;12.98;;;9.60;99.90;;;8.63;100.00;102315.72;4153678;28;20029;-81
2023/02/16 01:00:17;;;;;;;20.45;12.38;;;9.60;99.90;;;8.72;100.00;102331.69;4159290;28;20041;-81
2023/02/16 01:02:17;;;;;;;22.83;13.48;;;9.60;99.90;;;8.73;100.00;102332.53;4169851;28;20029;-81
2023/02/16 01:04:22;;;;;;;20.40;13.25;;;9.60;99.90;;;8.72;100.00;102325.59;4177916;28;20032;-81
2023/02/16 01:11:06;;;;;;;22.58;12.63;;;9.60;99.90;;;8.74;100.00;102336.84;4170051;28;20064;-81
2023/02/16 01:13:07;;;;;;;22.63;12.77;;;9.60;99.90;;;8.67;100.00;102311.91;4170519;28;20029;-82
2023/02/16 01:15:15;;;;;;;26.13;14.05;;;9.60;99.90;;;8.69;100.00;102325.81;4169854;28;20060;-81
2023/02/16 01:17:16;;;;;;;22.15;13.18;;;9.60;99.90;;;8.68;100.00;102319.69;4191330;28;20064;-81
2023/02/16 01:19:17;;;;;;;24.13;13.35;;;9.60;99.90;;;8.68;100.00;102319.69;4169601;28;20121;-81
2023/02/16 01:21:18;;;;;;;27.98;14.23;;;9.60;99.90;;;8.76;100.00;102321.78;4153068;28;20498;-81
2023/02/16 01:23:19;;;;;;;27.77;13.55;;;9.60;99.90;;;8.71;100.00;102322.13;4170709;28;20021;-81
2023/02/16 01:25:20;;;;;;;21.90;13.50;;;9.60;99.90;;;8.73;100.00;102325.47;4169696;28;20581;-81
2023/02/16 01:27:21;;;;;;;26.15;12.48;;;9.60;99.90;;;8.76;100.00;102333.16;4183047;28;20563;-81
2023/02/16 01:29:22;;;;;;;26.50;13.40;;;9.60;99.90;;;8.77;100.00;102329.59;4172101;28;20026;-81
2023/02/16 01:31:23;;;;;;;26.13;13.48;;;9.60;99.90;;;8.67;100.00;102314.53;4171179;28;20505;-80
2023/02/16 01:33:24;;;;;;;25.00;13.27;;;9.60;99.90;;;8.78;100.00;102331.25;4170739;28;20037;-81
2023/02/16 01:35:32;;;;;;;22.20;12.82;;;9.60;99.90;;;8.73;100.00;102317.59;4185909;28;20025;-81
2023/02/16 01:37:33;;;;;;;23.23;13.32;;;9.60;99.90;;;8.80;100.00;102325.91;4198247;28;20080;-80
2023/02/16 01:39:34;;;;;;;33.55;15.43;;;9.60;99.90;;;8.78;100.00;102315.47;4170480;28;20029;-80
2023/02/16 01:41:55;;;;;;;33.58;14.57;;;9.60;99.90;;;8.79;100.00;102327.69;4153267;28;20053;-81
2023/02/16 01:44:07;;;;;;;27.10;14.00;;;9.60;99.90;;;8.71;100.00;102310.75;4170337;28;20030;-80
2023/02/16 01:46:23;;;;;;;24.33;13.60;;;9.60;99.90;;;8.71;100.00;102316.84;4174287;28;20029;-81
2023/02/16 01:48:29;;;;;;;25.30;15.18;;;9.70;99.90;;;8.81;100.00;102319.72;4157248;28;20022;-81
2023/02/16 01:50:48;;;;;;;25.80;14.75;;;9.70;99.90;;;8.83;100.00;102313.38;4170568;28;20112;-81
2023/02/16 01:53:02;;;;;;;21.60;13.50;;;9.70;99.90;;;8.85;100.00;102313.25;4169093;28;20026;-81
2023/02/16 01:55:19;;;;;;;23.70;13.95;;;9.70;99.90;;;8.86;100.00;102318.44;4164898;28;20140;-81
2023/02/16 01:58:07;;;;;;;28.40;14.18;;;9.70;99.90;;;8.86;100.00;102315.81;4156248;28;20026;-81
2023/02/16 02:00:20;;;;;;;24.98;14.60;;;9.70;99.90;;;8.89;100.00;102322.63;4151712;28;20043;-81
2023/02/16 02:02:34;;;;;;;25.45;15.27;;;9.70;99.90;;;8.96;100.00;102320.44;4168873;28;20535;-81
2023/02/16 02:07:16;;;;;;;26.10;15.23;;;9.70;99.90;;;8.94;100.00;102314.41;4176858;28;20179;-81
2023/02/16 02:09:37;;;;;;;25.80;14.35;;;9.80;99.90;;;8.92;100.00;102303.16;4169109;28;20104;-81
2023/02/16 02:12:05;;;;;;;22.73;13.15;;;9.80;99.90;;;8.90;100.00;102306.72;4169000;28;20441;-81
2023/02/16 02:14:25;;;;;;;25.88;14.30;;;9.80;99.90;;;8.93;100.00;102315.38;4153062;28;20033;-81
2023/02/16 02:16:27;;;;;;;25.83;14.70;;;9.80;99.90;;;8.85;100.00;102298.31;4189121;28;20491;-81
2023/02/16 02:18:28;;;;;;;30.02;15.38;;;9.80;99.90;;;8.86;100.00;102292.13;4168766;28;20025;-82
2023/02/16 02:23:47;;;;;;;27.80;14.57;;;9.80;99.90;;;8.92;100.00;102300.53;4169706;28;20473;-82
2023/02/16 02:26:21;;;;;;;24.02;13.73;;;9.80;99.90;;;8.85;100.00;102279.91;4168375;28;20105;-81
2023/02/16 02:28:35;;;;;;;23.20;14.30;;;9.80;99.90;;;8.88;100.00;102279.69;4168695;28;20028;-81
2023/02/16 02:30:44;;;;;;;27.27;14.55;;;9.80;99.90;;;8.90;100.00;102284.81;4169013;28;20025;-81
2023/02/16 02:33:44;;;;;;;24.80;14.05;;;9.80;99.90;;;8.87;100.00;102283.25;4200715;28;20036;-81
2023/02/16 02:36:21;;;;;;;23.88;13.77;;;9.70;99.90;;;8.90;100.00;102283.03;4172649;28;20048;-81
2023/02/16 02:38:57;;;;;;;24.05;14.75;;;9.70;99.90;;;8.90;100.00;102277.78;4169843;28;20447;-81
2023/02/16 02:41:03;;;;;;;26.80;15.00;;;9.80;99.90;;;8.91;100.00;102281.25;4168427;28;20039;-81
2023/02/16 02:43:16;;;;;;;28.05;15.52;;;9.70;99.90;;;8.92;100.00;102280.31;4169403;28;20061;-81
2023/02/16 02:45:37;;;;;;;31.35;15.85;;;9.70;99.90;;;8.91;100.00;102273.34;4169449;28;20068;-79
2023/02/16 02:47:45;;;;;;;26.20;14.68;;;9.70;99.90;;;8.85;100.00;102263.25;4178068;28;20401;-81
2023/02/16 02:49:54;;;;;;;33.00;15.30;;;9.70;99.90;;;8.91;100.00;102268.09;4184744;28;20032;-81
2023/02/16 02:51:55;;;;;;;25.17;14.65;;;9.80;99.90;;;8.84;100.00;102257.16;4168020;28;20034;-81
2023/02/16 03:01:10;;;;;;;32.25;15.63;;;9.80;99.90;;;8.84;100.00;102240.56;4173114;28;20064;-81
2023/02/16 03:03:30;;;;;;;37.78;15.35;;;9.80;99.90;;;8.85;100.00;102237.78;4152287;28;20053;-82
2023/02/16 03:05:34;;;;;;;36.22;16.13;;;9.80;99.90;;;8.89;100.00;102252.44;4173044;28;20079;-81
2023/02/16 03:07:47;;;;;;;34.50;14.52;;;9.80;99.90;;;8.93;100.00;102254.84;4170205;28;20444;-81
2023/02/16 03:12:43;;;;;;;41.50;16.77;;;9.80;99.90;;;8.97;100.00;102261.56;4183395;28;20021;-81
2023/02/16 03:14:55;;;;;;;32.40;16.52;;;9.80;99.90;;;8.97;100.00;102261.56;4168094;28;20116;-81
2023/02/16 03:29:21;;;;;;;37.53;15.38;;;9.90;99.90;;;9.09;100.00;102271.22;4172247;28;20433;-81
2023/02/16 03:31:30;;;;;;;30.05;15.10;;;9.90;99.90;;;9.08;100.00;102269.56;4173211;28;20017;-81
2023/02/16 03:33:32;;;;;;;27.88;14.93;;;10.00;99.90;;;9.09;100.00;102272.06;4174987;28;20061;-81
2023/02/16 03:35:34;;;;;;;34.92;15.95;;;9.90;99.90;;;9.11;100.00;102264.88;4180656;28;20025;-81
2023/02/16 03:37:35;;;;;;;32.80;15.43;;;9.90;99.90;;;9.13;100.00;102270.06;4181236;28;20034;-81
2023/02/16 03:40:27;;;;;;;38.10;15.75;;;10.00;99.90;;;9.17;100.00;102274.16;4168065;28;20032;-81
2023/02/16 03:41:57;;;;;;;24.83;13.98;;;10.00;99.90;;;9.14;100.00;102269.13;4167551;28;20140;-81
2023/02/16 03:43:59;;;;;;;28.02;15.70;;;10.00;99.90;;;9.09;100.00;102255.41;4167479;28;20022;-81
2023/02/16 03:46:00;;;;;;;32.67;15.95;;;10.00;99.90;;;9.20;100.00;102277.41;4168578;28;20456;-82
2023/02/16 03:48:02;;;;;;;31.77;15.85;;;10.00;99.90;;;9.20;100.00;102273.94;4175546;28;20025;-81
2023/02/16 03:50:03;;;;;;;31.30;15.85;;;10.00;99.90;;;9.19;100.00;102267.00;4168724;28;20064;-82
2023/02/16 03:52:04;;;;;;;41.58;17.50;;;10.00;99.90;;;9.19;100.00;102272.25;4151098;28;20029;-81
2023/02/16 03:54:05;;;;;;;31.95;15.68;;;10.00;99.90;;;9.19;100.00;102267.00;4171419;28;20112;-81
2023/02/16 03:56:06;;;;;;;33.35;15.05;;;10.00;99.90;;;9.18;100.00;102265.28;4182302;28;20103;-81
2023/02/16 03:58:11;;;;;;;30.65;14.68;;;10.10;99.90;;;9.21;100.00;102272.97;4151145;28;20059;-82
2023/02/16 04:00:12;;;;;;;34.10;15.45;;;10.10;99.90;;;9.16;100.00;102257.53;4167091;28;20044;-81
2023/02/16 04:02:13;;;;;;;30.02;15.27;;;10.10;99.90;;;9.25;100.00;102277.09;4151322;28;20452;-82
2023/02/16 04:04:14;;;;;;;34.92;16.60;;;10.10;99.90;;;9.25;100.00;102270.03;4168627;28;20113;-82
2023/02/16 04:06:15;;;;;;;29.20;15.43;;;10.10;99.90;;;9.24;100.00;102270.13;4171216;28;20056;-82
2023/02/16 04:08:16;;;;;;;28.85;17.48;;;10.10;99.90;;;9.26;100.00;102278.75;4169875;28;20485;-82
2023/02/16 04:10:17;;;;;;;29.02;13.77;;;10.10;99.90;;;9.21;100.00;102278.25;4167693;28;20481;-81
2023/02/16 04:12:37;;;;;;;32.53;15.55;;;10.10;99.90;;;9.25;100.00;102283.19;4168174;28;20545;-82
2023/02/16 04:14:37;;;;;;;28.95;14.63;;;10.10;99.90;;;9.17;100.00;102280.25;4156890;28;20644;-82
2023/02/16 04:16:38;;;;;;;31.88;15.45;;;10.10;99.90;;;9.24;100.00;102288.56;4183729;28;20029;-82
2023/02/16 04:18:39;;;;;;;31.17;14.25;;;10.10;99.90;;;9.19;100.00;102280.16;4179279;28;20101;-82
2023/02/16 04:20:40;;;;;;;34.85;15.18;;;10.10;99.90;;;9.22;100.00;102291.31;4167160;28;20029;-82
2023/02/16 04:22:42;;;;;;;32.47;16.08;;;10.10;99.90;;;9.23;100.00;102285.06;4167222;28;20021;-82
2023/02/16 04:24:43;;;;;;;32.60;15.30;;;10.10;99.90;;;9.18;100.00;102273.19;4170977;28;20103;-82
2023/02/16 04:26:44;;;;;;;29.10;15.82;;;10.10;99.90;;;9.16;100.00;102278.59;4151279;28;20022;-81
2023/02/16 04:28:45;;;;;;;38.80;16.60;;;10.10;99.90;;;9.16;100.00;102283.84;4167533;28;20033;-82
2023/02/16 04:30:46;;;;;;;32.67;15.93;;;10.10;99.90;;;9.13;100.00;102277.97;4167228;28;20025;-82
2023/02/16 04:32:48;;;;;;;36.05;17.55;;;10.00;99.90;;;9.19;100.00;102296.78;4167473;28;20505;-81
2023/02/16 04:34:49;;;;;;;34.47;16.63;;;10.10;99.90;;;9.19;100.00;102309.13;4167527;28;20076;-82
2023/02/16 04:36:50;;;;;;;34.45;16.77;;;10.00;99.90;;;9.16;100.00;102311.97;4174183;28;20029;-82
2023/02/16 04:38:51;;;;;;;41.78;19.77;;;10.00;99.90;;;9.06;100.00;102293.34;4172428;28;20578;-82
2023/02/16 04:40:51;;;;;;;45.17;24.60;;;10.00;99.90;;;9.14;100.00;102313.88;4167068;28;20141;-82
2023/02/16 04:42:52;;;;;;;38.80;22.92;;;10.00;99.90;;;9.12;100.00;102308.69;4167077;28;20030;-82
2023/02/16 04:44:53;;;;;;;42.20;18.70;;;9.90;99.90;;;9.14;100.00;102312.06;4167279;28;20052;-82
2023/02/16 04:46:54;;;;;;;29.48;17.20;;;9.90;99.90;;;9.15;100.00;102307.63;4174756;28;20084;-82
2023/02/16 04:48:55;;;;;;;34.97;16.17;;;10.00;99.90;;;9.06;100.00;102284.59;4168988;28;20044;-82
2023/02/16 04:50:56;;;;;;;29.58;14.02;;;10.00;99.90;;;9.12;100.00;102298.16;4168469;28;20025;-82
2023/02/16 04:52:57;;;;;;;27.17;13.02;;;10.00;99.90;;;9.08;100.00;102288.78;4167346;28;20083;-82
2023/02/16 04:54:58;;;;;;;27.67;14.50;;;10.00;99.90;;;9.12;100.00;102303.44;4178086;28;20029;-82
2023/02/16 04:57:00;;;;;;;30.40;13.82;;;10.00;99.90;;;9.07;100.00;102286.28;4175534;28;20124;-81
2023/02/16 04:59:01;;;;;;;23.35;12.32;;;9.90;99.90;;;9.12;100.00;102295.53;4167104;28;20037;-82
2023/02/16 05:01:02;;;;;;;25.85;13.35;;;9.90;99.90;;;9.06;100.00;102277.53;4168472;28;20481;-81
2023/02/16 05:03:03;;;;;;;23.48;11.38;;;9.90;99.90;;;9.10;100.00;102292.19;4167182;28;20030;-81
2023/02/16 05:05:04;;;;;;;21.50;10.55;;;9.90;99.90;;;9.07;100.00;102289.78;4166860;28;20105;-82
2023/02/16 05:07:05;;;;;;;21.52;9.30;;;9.90;99.90;;;9.05;100.00;102281.13;4159147;28;20026;-82
2023/02/16 05:09:06;;;;;;;28.48;10.20;;;9.90;99.90;;;9.05;100.00;102285.56;4183494;28;20036;-82
2023/02/16 05:15:47;;;;;;;20.20;9.77;;;9.90;99.90;;;9.03;100.00;102293.56;4187553;28;20036;-82
2023/02/16 05:17:48;;;;;;;20.85;10.00;;;9.90;99.90;;;8.99;100.00;102288.63;4173015;28;20056;-81
2023/02/16 05:19:53;;;;;;;19.00;9.45;;;9.90;99.90;;;9.01;100.00;102290.19;4169710;28;20025;-82
2023/02/16 05:21:54;;;;;;;18.70;9.27;;;9.90;99.90;;;9.02;100.00;102301.56;4170061;28;20409;-81
2023/02/16 05:23:55;;;;;;;20.83;10.27;;;9.90;99.90;;;8.95;100.00;102293.25;4169842;28;20028;-82
2023/02/16 05:25:56;;;;;;;21.45;10.15;;;9.90;99.90;;;8.96;100.00;102297.56;4185985;28;20049;-81
2023/02/16 05:27:58;;;;;;;20.25;7.93;;;9.80;99.90;;;8.94;100.00;102294.19;4182195;28;20050;-82
2023/02/16 05:29:59;;;;;;;17.20;7.15;;;9.80;99.90;;;8.96;100.00;102302.81;4169858;28;20108;-82
2023/02/16 05:32:01;;;;;;;17.48;7.43;;;9.80;99.90;;;8.92;100.00;102303.16;4169856;28;20022;-82
2023/02/16 05:34:02;;;;;;;18.63;7.90;;;9.80;99.90;;;8.96;100.00;102302.00;4169576;28;20037;-82
2023/02/16 05:36:03;;;;;;;16.60;8.20;;;9.80;99.90;;;8.92;100.00;102296.09;4169512;28;20402;-82
2023/02/16 05:38:04;;;;;;;16.35;7.90;;;9.80;99.90;;;8.92;100.00;102290.84;4179959;28;20034;-82
2023/02/16 05:40:06;;;;;;;20.73;7.10;;;9.80;99.90;;;8.89;100.00;102284.00;4169504;28;20036;-82
2023/02/16 05:42:07;;;;;;;20.85;7.53;;;9.80;99.90;;;9.00;100.00;102295.56;4169259;28;20425;-82
2023/02/16 05:44:09;;;;;;;19.38;8.23;;;9.80;99.90;;;8.98;100.00;102285.16;4170386;28;20036;-81
2023/02/16 05:46:10;;;;;;;19.75;7.10;;;9.80;99.90;;;9.00;100.00;102280.59;4169836;28;20059;-82
2023/02/16 05:48:11;;;;;;;21.25;8.80;;;9.80;99.90;;;8.98;100.00;102279.03;4178385;28;20030;-82
2023/02/16 05:50:12;;;;;;;21.67;7.97;;;9.80;99.90;;;8.88;100.00;102268.31;4170452;28;20025;-82
2023/02/16 05:52:12;;;;;;;19.02;7.82;;;9.80;99.90;;;8.89;100.00;102286.66;4169376;28;20029;-82
2023/02/16 05:54:17;;;;;;;16.92;7.03;;;9.80;99.90;;;8.88;100.00;102290.22;4157911;28;20512;-82
2023/02/16 05:56:19;;;;;;;17.23;8.02;;;9.80;99.90;;;8.89;100.00;102298.94;4168158;28;20033;-82
2023/02/16 05:58:20;;;;;;;14.13;6.70;;;9.70;99.90;;;8.87;100.00;102304.31;4152665;28;20022;-82
2023/02/16 06:00:21;;;;;;;20.92;7.45;;;9.80;99.90;;;8.85;100.00;102300.94;4168995;28;20080;-82
2023/02/16 06:02:22;;;;;;;14.57;6.68;;;9.80;99.90;;;8.94;100.00;102304.72;4170309;28;20119;-81
2023/02/16 06:04:23;;;;;;;17.63;6.40;;;9.70;99.90;;;8.85;100.00;102289.56;4169072;28;20030;-81
2023/02/16 06:06:24;;;;;;;14.00;6.05;;;9.70;99.90;;;8.86;100.00;102299.16;4171239;28;20029;-82
2023/02/16 06:08:25;;;;;;;20.42;6.03;;;9.70;99.90;;;8.90;100.00;102298.84;4170456;28;20033;-81
2023/02/16 06:10:26;;;;;;;15.43;5.30;;;9.70;99.90;;;8.84;100.00;102299.25;4169221;28;20033;-81
2023/02/16 06:12:27;;;;;;;13.73;5.78;;;9.70;99.90;;;8.85;100.00;102290.44;4168801;28;20068;-81
2023/02/16 06:14:28;;;;;;;17.42;5.53;;;9.80;99.90;;;8.94;100.00;102303.88;4170194;28;20056;-82
2023/02/16 06:16:31;;;;;;;12.27;5.65;;;9.70;99.90;;;8.82;100.00;102280.13;4170638;28;20025;-82
2023/02/16 06:18:32;;;;;;;19.80;5.95;;;9.80;99.90;;;8.84;100.00;102298.44;4172720;28;20477;-82
2023/02/16 06:20:33;;;;;;;16.13;5.63;;;9.70;99.90;;;8.84;100.00;102304.53;4172392;28;20025;-82
2023/02/16 06:22:34;;;;;;;15.98;5.40;;;9.80;99.90;;;8.86;100.00;102300.00;4168801;28;20060;-81
2023/02/16 06:24:36;;;;;;;12.20;5.60;;;9.70;99.90;;;8.83;100.00;102302.84;4168483;28;20084;-82
2023/02/16 06:26:37;;;;;;;15.60;5.18;;;9.70;99.90;;;8.90;100.00;102319.03;4173117;28;20032;-81
2023/02/16 06:28:38;;;;;;;14.85;5.45;;;9.70;99.90;;;8.85;100.00;102306.22;4176890;28;20018;-82
2023/02/16 06:30:41;;;;;;;17.63;5.57;;;9.70;99.90;;;8.81;100.00;102306.56;4196956;28;20093;-82
2023/02/16 06:32:42;;;;;;;16.40;5.07;;;9.70;99.90;;;8.84;100.00;102317.69;4168582;28;20627;-82
2023/02/16 06:34:43;;;;;;;19.38;6.22;;;9.70;99.90;;;8.82;100.00;102303.78;4151865;28;20040;-82
2023/02/16 06:36:43;;;;;;;18.92;4.88;;;9.70;99.90;;;8.79;100.00;102296.13;4172863;28;20134;-82
2023/02/16 06:38:45;;;;;;;22.52;6.05;;;9.70;99.90;;;8.77;100.00;102303.28;4173638;28;20040;-82
2023/02/16 06:40:46;;;;;;;16.42;5.40;;;9.70;99.90;;;8.84;100.00;102312.41;4169641;28;20026;-82
2023/02/16 06:42:47;;;;;;;14.77;5.20;;;9.70;99.90;;;8.80;100.00;102313.59;4184942;28;20032;-82
2023/02/16 06:44:48;;;;;;;22.17;5.32;;;9.70;99.90;;;8.85;100.00;102319.38;4169647;28;20067;-82
2023/02/16 06:46:48;;;;;;;17.27;5.10;;;9.70;99.90;;;8.86;100.00;102323.69;4173270;28;20051;-82
2023/02/16 06:48:49;;;;;;;19.00;5.65;;;9.70;99.90;;;8.85;100.00;102322.00;4154529;28;20022;-82
2023/02/16 06:50:51;;;;;;;18.45;5.75;;;9.70;99.90;;;8.83;100.00;102323.91;4168665;28;20580;-81
2023/02/16 06:52:51;;;;;;;19.95;4.90;;;9.70;99.90;;;8.84;100.00;102322.94;4168239;28;20035;-82
2023/02/16 06:54:52;;;;;;;21.98;6.00;;;9.70;99.90;;;8.77;100.00;102313.81;4178832;28;20068;-81
2023/02/16 06:56:53;;;;;;;17.73;6.55;;;9.70;99.90;;;8.81;100.00;102327.59;4174855;28;20108;-82
2023/02/16 06:58:54;;;;;;;22.38;6.47;;;9.70;99.90;;;8.81;100.00;102325.78;4169561;28;20392;-81
2023/02/16 07:00:55;;;;;;;18.63;6.47;;;9.70;99.90;;;8.83;100.00;102326.53;4168193;28;20053;-81
2023/02/16 07:02:56;;;;;;;21.65;6.20;;;9.70;99.90;;;8.76;100.00;102314.75;4168276;28;20107;-81
2023/02/16 07:04:57;;;;;;;18.85;6.90;;;9.70;99.90;;;8.88;100.00;102337.59;4168062;28;20073;-81
2023/02/16 07:06:58;;;;;;;19.20;5.32;;;9.70;99.90;;;8.88;100.00;102342.00;4175951;28;20033;-81
2023/02/16 07:08:59;;;;;;;16.73;5.50;;;9.70;99.90;;;8.90;100.00;102346.19;4168189;28;20171;-81
2023/02/16 07:11:00;;;;;;;21.27;6.60;;;9.70;99.90;;;8.87;100.00;102346.41;4169288;28;20103;-81
2023/02/16 07:13:01;;;;;;;20.65;7.55;;;9.70;99.90;;;8.96;100.00;102354.63;4167841;28;20053;-81
2023/02/16 07:15:03;;;;;;;16.58;5.97;;;9.80;99.90;;;9.00;100.00;102361.34;4168057;28;20067;-81
2023/02/16 07:17:04;;;;;;;23.20;6.45;;;9.80;99.90;;;8.92;100.00;102345.25;4189791;28;20057;-80
2023/02/16 07:19:05;;;;;;;17.45;6.53;;;9.80;99.90;;;8.99;100.00;102357.88;4167981;28;20598;-81
2023/02/16 07:21:06;;;;;;;19.67;7.35;;;9.90;99.90;;;9.08;100.00;102366.94;4167935;28;20480;-81
2023/02/16 07:23:07;;;;;;;16.05;6.28;;;9.90;99.90;;;9.09;100.00;102363.34;4168099;28;20100;-80
2023/02/16 07:25:08;;;;;;;15.20;6.18;;;9.90;99.90;;;9.06;100.00;102356.50;4151367;28;20056;-80
2023/02/16 07:27:09;;;;;;;14.48;6.60;;;9.90;99.90;;;9.14;100.00;102369.16;4167422;28;20036;-80
2023/02/16 07:29:10;;;;;;;21.98;7.45;;;10.00;99.90;;;9.14;100.00;102363.91;4172969;28;20026;-81
2023/02/16 07:31:16;;;;;;;16.88;7.13;;;10.00;99.90;;;9.19;100.00;102374.94;4168174;28;20029;-81
2023/02/16 07:33:18;;;;;;;14.35;6.28;;;10.00;99.90;;;9.20;100.00;102381.91;4169091;28;20083;-81
2023/02/16 07:35:21;;;;;;;14.50;7.05;;;10.00;99.90;;;9.17;100.00;102376.84;4168479;28;20032;-80
2023/02/16 07:37:21;;;;;;;13.38;5.90;;;10.00;99.90;;;9.21;100.00;102386.19;4170077;28;20030;-80
2023/02/16 07:39:23;;;;;;;17.70;5.78;;;10.10;99.90;;;9.26;100.00;102395.44;4167807;28;20125;-80
2023/02/16 07:41:24;;;;;;;11.00;5.75;;;10.10;99.90;;;9.25;100.00;102392.94;4168823;28;20025;-81
2023/02/16 07:43:25;;;;;;;17.67;6.03;;;10.10;99.90;;;9.21;100.00;102392.31;4167607;28;20097;-82
2023/02/16 07:45:27;;;;;;;13.55;6.10;;;10.10;99.90;;;9.28;100.00;102398.00;4167527;28;20433;-81
2023/02/16 07:47:28;;;;;;;15.88;6.50;;;10.20;99.90;;;9.36;100.00;102401.75;4179304;28;20025;-82
2023/02/16 07:49:29;;;;;;;15.90;5.53;;;10.10;99.90;;;9.32;100.00;102388.91;4167842;28;20029;-81
2023/02/16 07:51:30;;;;;;;26.77;8.05;;;10.20;99.90;;;9.41;100.00;102394.38;4167703;28;20029;-82
2023/02/16 07:53:31;;;;;;;18.83;6.53;;;10.20;99.90;;;9.35;100.00;102384.28;4167413;28;20089;-82
2023/02/16 07:55:38;;;;;;;23.00;7.35;;;10.30;99.90;;;9.43;100.00;102400.41;4151333;28;20045;-82
2023/02/16 07:57:39;;;;;;;14.68;6.80;;;10.30;99.90;;;9.51;100.00;102402.47;4177014;28;20096;-82
2023/02/16 07:59:40;;;;;;;17.85;7.65;;;10.30;99.90;;;9.55;100.00;102401.31;4168850;28;20056;-81
2023/02/16 08:01:42;;;;;;;19.17;7.30;;;10.40;99.90;;;9.62;100.00;102401.69;4167548;28;20036;-81
2023/02/16 08:03:43;;;;;;;21.83;7.43;;;10.40;99.90;;;9.63;100.00;102398.97;4167336;28;20124;-81
2023/02/16 08:05:44;;;;;;;22.20;7.50;;;10.40;99.90;;;9.68;100.00;102394.19;4167556;28;20057;-82
2023/02/16 08:07:45;;;;;;;16.30;6.72;;;10.50;99.90;;;9.69;100.00;102384.50;4174768;28;20021;-82
2023/02/16 08:09:46;;;;;;;27.10;7.05;;;10.50;99.90;;;9.69;100.00;102376.59;4167282;28;20021;-82
2023/02/16 08:11:47;;;;;;;24.90;7.82;;;10.60;99.90;;;9.78;100.00;102386.47;4168267;28;20030;-82
2023/02/16 08:13:48;;;;;;;22.55;8.02;;;10.60;99.90;;;9.73;100.00;102378.94;4168572;28;20079;-81
2023/02/16 08:15:49;;;;;;;18.95;7.78;;;10.60;99.90;;;9.77;100.00;102384.78;4168105;28;20030;-82
2023/02/16 08:17:50;;;;;;;22.55;6.65;;;10.60;99.90;;;9.89;100.00;102405.00;4171746;28;20105;-79
2023/02/16 08:19:51;;;;;;;12.93;6.22;;;10.70;99.90;;;9.84;100.00;102392.16;4167128;28;20110;-81
2023/02/16 08:21:53;;;;;;;24.95;7.72;;;10.70;99.90;;;9.99;100.00;102398.09;4169910;28;20034;-81
2023/02/16 08:24:03;;;;;;;14.15;5.60;;;10.80;99.90;;;10.06;100.00;102396.72;4175941;28;20120;-81
2023/02/16 08:26:10;;;;;;;16.88;5.75;;;10.90;99.90;;;10.03;100.00;102384.56;4183196;28;20045;-81
2023/02/16 08:28:13;;;;;;;21.30;6.82;;;10.90;99.90;;;10.10;100.00;102390.25;4167151;28;20033;-81
2023/02/16 08:30:17;;;;;;;16.33;5.35;;;10.90;99.90;;;10.15;100.00;102384.69;4167398;28;20025;-79
2023/02/16 08:32:18;;;;;;;16.77;5.00;;;11.00;99.90;;;10.19;100.00;102386.97;4169124;28;20057;-79
2023/02/16 08:34:20;;;;;;;15.27;5.90;;;11.00;99.90;;;10.28;100.00;102388.91;4167479;28;20033;-79
2023/02/16 08:36:31;;;;;;;13.15;6.38;;;11.10;99.90;;;10.25;100.00;102398.84;4167537;28;20444;-80
2023/02/16 08:38:33;;;;;;;12.15;5.07;;;11.10;99.90;;;10.26;100.00;102398.75;4167305;28;20021;-80
2023/02/16 08:40:34;;;;;;;15.35;5.35;;;11.10;99.90;;;10.26;100.00;102390.84;4168251;28;20033;-79
2023/02/16 08:42:36;;;;;;;15.65;5.40;;;11.10;99.90;;;10.26;100.00;102397.91;4166494;28;20026;-79
2023/02/16 08:44:38;;;;;;;9.90;5.30;;;11.10;99.90;;;10.29;100.00;102392.41;4167142;28;20059;-79
2023/02/16 08:46:44;;;;;;;14.25;5.18;;;11.10;99.90;;;10.31;100.00;102383.41;4175588;28;20083;-79
2023/02/16 08:48:46;;;;;;;11.88;5.05;;;11.20;99.90;;;10.40;100.00;102380.09;4173799;28;20037;-79
2023/02/16 08:50:53;;;;;;;15.50;5.10;;;11.30;99.90;;;10.57;100.00;102376.22;4153951;28;20036;-79
2023/02/16 08:52:54;;;;;;;16.10;5.25;;;11.30;99.90;;;10.63;100.00;102378.38;4170102;28;20052;-79
2023/02/16 08:54:55;;;;;;;13.32;5.97;;;11.40;99.90;;;10.76;100.00;102379.09;4164410;28;20025;-79
2023/02/16 08:56:58;;;;;;;9.75;4.78;;;11.60;99.90;;;10.94;100.00;102382.13;4177080;28;20044;-80
2023/02/16 08:58:59;;;;;;;10.35;5.05;;;11.70;99.90;;;11.00;100.00;102369.31;4171159;28;20515;-81
2023/02/16 09:01:07;;;;;;;12.57;4.88;;;11.80;99.90;;;11.11;100.00;102365.81;4170457;28;20030;-80
2023/02/16 09:03:08;;;;;;;14.48;5.00;;;11.90;99.90;;;11.20;100.00;102377.50;4170236;28;20581;-81
2023/02/16 09:05:09;;;;;;;13.15;4.40;;;12.00;99.90;;;11.20;100.00;102353.72;4171104;28;20033;-82
2023/02/16 09:07:10;;;;;;;11.07;3.80;;;12.10;99.90;;;11.43;100.00;102366.78;4176319;28;20161;-80
2023/02/16 09:09:12;;;;;;;8.20;3.30;;;12.20;99.90;;;11.54;100.00;102357.97;4186448;28;20032;-81